Time;durP1;ratioP1;P1;durP2;ratioP2;P2;SDS_P1;SDS_P2;PMS_P1;PMS_P2;Temp;Humidity;BMP_temperature;BMP_pressure;BME280_temperature;BME280_humidity;BME280_pressure;Samples;Min_cycle;Max_cycle;Signal;HPM_P1;HPM_P2
2022/06/15 00:01:49;;;;;;;2.83;2.53;;;19.90;93.10;;;;;;5062907;28;20060;-80
2022/06/15 00:04:15;;;;;;;3.47;2.35;;;19.80;93.10;;;;;;5065695;28;20043;-80
2022/06/15 00:06:42;;;;;;;3.60;2.55;;;19.90;93.20;;;;;;5062403;28;20052;-81
2022/06/15 00:09:08;;;;;;;3.80;2.40;;;19.80;93.20;;;;;;5063978;28;20542;-80
2022/06/15 00:11:38;;;;;;;4.95;2.50;;;19.80;93.30;;;;;;5062841;28;20559;-80
2022/06/15 00:14:18;;;;;;;4.32;2.67;;;19.80;93.40;;;;;;5065153;28;20048;-80
2022/06/15 00:16:44;;;;;;;4.03;2.47;;;19.80;93.70;;;;;;5064487;28;20036;-80
2022/06/15 00:19:10;;;;;;;4.00;2.22;;;19.80;93.50;;;;;;5064001;28;20056;-80
2022/06/15 00:21:36;;;;;;;5.60;2.72;;;19.70;93.50;;;;;;5064061;28;20048;-80
2022/06/15 00:24:03;;;;;;;11.75;2.53;;;19.70;93.60;;;;;;5064276;28;20080;-80
2022/06/15 00:26:29;;;;;;;4.47;2.67;;;19.70;93.60;;;;;;5057846;28;20045;-80
2022/06/15 00:28:55;;;;;;;4.53;2.35;;;19.70;93.70;;;;;;5065743;28;20690;-80
2022/06/15 00:31:21;;;;;;;4.95;2.40;;;19.70;93.70;;;;;;5078988;28;20049;-80
2022/06/15 00:33:48;;;;;;;4.05;2.45;;;19.60;93.70;;;;;;5065006;28;20044;-81
2022/06/15 00:36:17;;;;;;;5.10;2.67;;;19.70;93.80;;;;;;5062842;28;20049;-81
2022/06/15 00:38:49;;;;;;;3.72;2.40;;;19.60;93.80;;;;;;5064059;28;20163;-80
2022/06/15 00:41:19;;;;;;;3.90;2.13;;;19.60;93.90;;;;;;5061219;28;20057;-81
2022/06/15 00:43:48;;;;;;;3.83;1.98;;;19.60;93.90;;;;;;5062969;28;20049;-80
2022/06/15 00:46:25;;;;;;;3.15;2.00;;;19.50;94.00;;;;;;5081213;28;20064;-81
2022/06/15 00:48:59;;;;;;;6.15;3.00;;;19.50;94.00;;;;;;5064084;28;20044;-81
2022/06/15 00:51:26;;;;;;;3.92;1.95;;;19.50;94.30;;;;;;5049006;28;20076;-80
2022/06/15 00:53:54;;;;;;;4.25;2.45;;;19.50;94.10;;;;;;5064756;28;20044;-81
2022/06/15 00:56:20;;;;;;;3.15;1.95;;;19.50;94.10;;;;;;5064975;28;20049;-80
2022/06/15 00:58:49;;;;;;;3.42;2.42;;;19.40;94.10;;;;;;5064632;28;20206;-80
2022/06/15 01:01:15;;;;;;;7.13;2.90;;;19.40;94.20;;;;;;5080323;28;20080;-80
2022/06/15 01:03:42;;;;;;;3.95;2.53;;;19.40;94.20;;;;;;5066738;28;20417;-80
2022/06/15 01:06:40;;;;;;;7.88;3.00;;;19.40;94.30;;;;;;5065816;28;20072;-80
2022/06/15 01:09:27;;;;;;;6.10;2.10;;;19.40;94.30;;;;;;5064094;28;20102;-80
2022/06/15 01:12:17;;;;;;;3.78;2.47;;;19.40;94.40;;;;;;5082448;28;20052;-80
2022/06/15 01:14:57;;;;;;;4.85;2.33;;;19.30;94.40;;;;;;5067686;28;20792;-80
2022/06/15 01:17:32;;;;;;;3.70;2.45;;;19.30;94.50;;;;;;5069539;28;20041;-80
2022/06/15 01:20:41;;;;;;;5.85;2.55;;;19.30;94.50;;;;;;5067772;28;20438;-80
2022/06/15 01:23:11;;;;;;;2.97;2.65;;;19.30;94.50;;;;;;5066377;28;20049;-80
2022/06/15 01:25:51;;;;;;;4.43;2.45;;;19.30;94.50;;;;;;5067931;28;20119;-80
2022/06/15 01:28:39;;;;;;;4.15;2.60;;;19.30;94.60;;;;;;5064152;28;20128;-80
2022/06/15 01:31:17;;;;;;;4.63;2.90;;;19.30;94.70;;;;;;5065033;28;20071;-80
2022/06/15 01:34:07;;;;;;;5.78;2.30;;;19.20;94.60;;;;;;5064276;28;20044;-80
2022/06/15 01:36:39;;;;;;;4.45;2.08;;;19.20;94.70;;;;;;5064595;28;20090;-80
2022/06/15 01:39:13;;;;;;;7.38;2.88;;;19.20;94.80;;;;;;5067928;28;20118;-80
2022/06/15 01:41:56;;;;;;;5.82;2.38;;;19.10;94.80;;;;;;5066509;28;20817;-80
2022/06/15 01:44:27;;;;;;;4.72;2.50;;;19.10;94.80;;;;;;5068245;28;20490;-80
2022/06/15 01:46:55;;;;;;;3.75;2.22;;;19.10;94.90;;;;;;5067737;28;20049;-80
2022/06/15 01:49:29;;;;;;;6.18;2.20;;;19.10;94.90;;;;;;5067009;28;20907;-80
2022/06/15 01:51:57;;;;;;;9.07;3.33;;;19.10;95.00;;;;;;5064529;28;20040;-80
2022/06/15 01:54:31;;;;;;;5.38;2.60;;;19.10;95.00;;;;;;5068772;28;20563;-80
2022/06/15 01:56:58;;;;;;;4.88;2.35;;;19.00;95.00;;;;;;5066275;28;20056;-80
2022/06/15 01:59:35;;;;;;;5.30;2.50;;;19.00;95.00;;;;;;5065633;28;20033;-80
2022/06/15 02:02:45;;;;;;;6.38;2.22;;;18.90;95.10;;;;;;5063189;28;20051;-80
2022/06/15 02:05:36;;;;;;;7.25;3.08;;;18.90;95.20;;;;;;5080239;28;20045;-80
2022/06/15 02:08:14;;;;;;;4.38;2.75;;;18.90;95.20;;;;;;5065249;28;20620;-80
2022/06/15 02:10:56;;;;;;;6.78;2.15;;;18.90;95.20;;;;;;5066311;28;20174;-80
2022/06/15 02:13:24;;;;;;;;;;;18.90;95.20;;;;;;5064274;28;20040;-80
2022/06/15 02:15:58;;;;;;;4.10;2.42;;;18.90;95.20;;;;;;5067097;28;19933;-80
2022/06/15 02:18:27;;;;;;;4.57;3.10;;;18.90;95.20;;;;;;5067181;28;20047;-80
2022/06/15 02:20:58;;;;;;;6.03;3.38;;;18.90;95.30;;;;;;5066645;28;20052;-80
2022/06/15 02:23:26;;;;;;;7.05;4.10;;;18.90;95.30;;;;;;5066520;28;20041;-80
2022/06/15 02:25:53;;;;;;;3.50;2.25;;;18.90;95.30;;;;;;5067720;28;20588;-80
2022/06/15 02:28:26;;;;;;;5.03;2.78;;;18.90;95.40;;;;;;5063377;28;20657;-80
2022/06/15 02:30:51;;;;;;;5.25;2.67;;;18.90;95.40;;;;;;5063812;28;20187;-80
2022/06/15 02:33:27;;;;;;;5.45;2.55;;;18.90;95.40;;;;;;5062925;28;20539;-80
2022/06/15 02:35:55;;;;;;;3.92;2.85;;;18.90;95.40;;;;;;5066665;28;20865;-80
2022/06/15 02:38:21;;;;;;;5.25;3.03;;;18.80;95.40;;;;;;5064299;28;20041;-80
2022/06/15 02:40:46;;;;;;;4.65;2.40;;;18.80;95.40;;;;;;5065679;28;20521;-80
2022/06/15 02:43:14;;;;;;;5.53;2.70;;;18.80;95.40;;;;;;5065477;28;20061;-80
2022/06/15 02:45:41;;;;;;;5.43;2.45;;;18.70;95.40;;;;;;5066739;28;20439;-80
2022/06/15 02:48:09;;;;;;;5.55;2.60;;;18.70;95.50;;;;;;5066658;28;20052;-80
2022/06/15 02:50:42;;;;;;;4.57;2.10;;;18.70;95.50;;;;;;5066690;28;20502;-80
2022/06/15 02:53:19;;;;;;;4.75;2.63;;;18.60;95.50;;;;;;5063937;28;20089;-80
2022/06/15 02:55:46;;;;;;;3.60;2.65;;;18.60;95.60;;;;;;5065307;28;20063;-80
2022/06/15 02:58:14;;;;;;;3.95;2.13;;;18.60;95.60;;;;;;5063186;28;20040;-80
2022/06/15 03:00:40;;;;;;;4.60;2.80;;;18.60;95.60;;;;;;5064541;28;20098;-79
2022/06/15 03:03:07;;;;;;;3.88;2.30;;;18.60;95.60;;;;;;5065008;28;20035;-80
2022/06/15 03:05:32;;;;;;;5.88;2.72;;;18.60;95.60;;;;;;5066011;28;20095;-79
2022/06/15 03:07:58;;;;;;;3.63;2.22;;;18.60;95.70;;;;;;5062819;28;21110;-79
2022/06/15 03:10:24;;;;;;;5.70;3.47;;;18.50;95.70;;;;;;5065390;28;20048;-80
2022/06/15 03:12:50;;;;;;;3.40;2.78;;;18.50;95.70;;;;;;5063144;28;20087;-79
2022/06/15 03:15:15;;;;;;;6.47;2.90;;;18.50;95.80;;;;;;5064117;28;20178;-79
2022/06/15 03:17:41;;;;;;;7.55;3.38;;;18.50;95.80;;;;;;5065415;28;20041;-79
2022/06/15 03:20:09;;;;;;;2.97;2.17;;;18.50;95.80;;;;;;5063379;28;20151;-79
2022/06/15 03:22:36;;;;;;;3.53;2.33;;;18.50;95.80;;;;;;5079939;28;20900;-79
2022/06/15 03:25:02;;;;;;;6.72;2.90;;;18.40;95.80;;;;;;5063557;28;20088;-80
2022/06/15 03:27:28;;;;;;;7.00;2.50;;;18.40;95.90;;;;;;5062978;28;20045;-80
2022/06/15 03:29:55;;;;;;;4.93;2.83;;;18.30;95.90;;;;;;5065405;28;20095;-80
2022/06/15 03:32:21;;;;;;;7.40;2.55;;;18.30;95.90;;;;;;5063468;28;20040;-80
2022/06/15 03:34:47;;;;;;;3.45;2.33;;;18.30;96.00;;;;;;5065363;28;20462;-80
2022/06/15 03:37:13;;;;;;;4.25;2.67;;;18.30;96.00;;;;;;5049575;28;20410;-80
2022/06/15 03:39:39;;;;;;;5.10;2.30;;;18.20;96.00;;;;;;5066346;28;20037;-79
2022/06/15 03:42:25;;;;;;;9.45;2.92;;;18.20;96.10;;;;;;5063814;28;20096;-80
2022/06/15 03:44:53;;;;;;;4.05;2.15;;;18.20;96.20;;;;;;5065398;28;20056;-80
2022/06/15 03:47:20;;;;;;;4.82;2.90;;;18.20;96.20;;;;;;5063542;28;20080;-80
2022/06/15 03:49:48;;;;;;;5.82;2.58;;;18.10;96.20;;;;;;5066170;28;20694;-80
2022/06/15 03:52:15;;;;;;;5.38;4.20;;;18.20;96.30;;;;;;5065590;28;20158;-79
2022/06/15 03:54:41;;;;;;;4.05;2.25;;;18.10;96.30;;;;;;5063213;28;20048;-79
2022/06/15 03:57:09;;;;;;;6.18;2.60;;;18.10;96.30;;;;;;5063651;28;20067;-79
2022/06/15 03:59:34;;;;;;;5.28;2.85;;;18.10;96.30;;;;;;5066823;28;20044;-79
2022/06/15 04:02:00;;;;;;;6.60;2.75;;;18.10;96.40;;;;;;5049724;28;20156;-79
2022/06/15 04:04:26;;;;;;;4.22;2.00;;;18.10;96.40;;;;;;5063449;28;20458;-79
2022/06/15 04:06:52;;;;;;;6.20;2.67;;;18.10;96.50;;;;;;5063337;28;20654;-79
2022/06/15 04:09:22;;;;;;;7.35;2.63;;;18.10;96.60;;;;;;5061885;28;20037;-79
2022/06/15 04:11:58;;;;;;;5.43;2.13;;;18.10;96.60;;;;;;5066267;28;20041;-79
2022/06/15 04:14:32;;;;;;;3.20;2.38;;;18.00;96.60;;;;;;5064483;28;20086;-80
2022/06/15 04:16:58;;;;;;;5.75;2.75;;;18.10;96.70;;;;;;5064160;28;20037;-79
2022/06/15 04:19:30;;;;;;;12.80;5.72;;;18.10;96.70;;;;;;5064409;28;20079;-79
2022/06/15 04:21:56;;;;;;;7.18;2.75;;;18.00;96.70;;;;;;5063111;28;20051;-79
2022/06/15 04:24:24;;;;;;;13.45;3.45;;;18.00;96.80;;;;;;5064796;28;20164;-79
2022/06/15 04:26:51;;;;;;;8.88;3.28;;;18.00;96.80;;;;;;5064073;28;20040;-79
2022/06/15 04:29:17;;;;;;;5.85;2.65;;;18.00;96.90;;;;;;5062392;28;20062;-80
2022/06/15 04:31:43;;;;;;;8.15;2.50;;;18.00;96.90;;;;;;5057777;28;20628;-80
2022/06/15 04:34:10;;;;;;;5.88;2.90;;;18.10;97.00;;;;;;5072453;28;20053;-80
2022/06/15 04:36:38;;;;;;;3.17;2.13;;;18.10;97.10;;;;;;5060644;28;22470;-81
2022/06/15 04:39:05;;;;;;;4.82;2.53;;;18.10;97.10;;;;;;5059917;28;20873;-80
2022/06/15 04:41:32;;;;;;;5.22;2.78;;;18.20;97.10;;;;;;5076624;28;20534;-81
2022/06/15 04:43:59;;;;;;;4.30;2.83;;;18.20;97.20;;;;;;5057621;28;20061;-80
2022/06/15 04:46:24;;;;;;;4.50;2.40;;;18.30;97.30;;;;;;5058166;28;21085;-80
2022/06/15 04:48:50;;;;;;;3.72;2.22;;;18.30;97.30;;;;;;5058018;28;20076;-80
2022/06/15 04:51:25;;;;;;;8.35;2.50;;;18.40;97.30;;;;;;5062285;28;20048;-80
2022/06/15 04:53:53;;;;;;;6.03;2.20;;;18.50;97.40;;;;;;5057206;28;20053;-92
2022/06/15 04:56:20;;;;;;;4.30;2.28;;;18.50;97.30;;;;;;5080794;28;20064;-79
2022/06/15 04:58:47;;;;;;;5.90;2.20;;;18.60;97.20;;;;;;5064456;28;20068;-80
2022/06/15 05:01:14;;;;;;;5.38;2.42;;;18.60;97.20;;;;;;5063709;28;20045;-81
2022/06/15 05:03:40;;;;;;;3.95;2.20;;;18.60;97.30;;;;;;5061158;28;20041;-81
2022/06/15 05:06:21;;;;;;;7.95;2.33;;;18.70;97.30;;;;;;5058661;28;20049;-82
2022/06/15 05:08:47;;;;;;;4.35;2.25;;;18.70;97.40;;;;;;5059088;28;20047;-82
2022/06/15 05:11:13;;;;;;;3.78;2.47;;;18.70;97.30;;;;;;5060424;28;20057;-82
2022/06/15 05:13:39;;;;;;;5.93;2.50;;;18.70;97.30;;;;;;5057108;28;20518;-83
2022/06/15 05:16:05;;;;;;;3.33;2.40;;;18.70;97.30;;;;;;5056306;28;20040;-82
2022/06/15 05:18:30;;;;;;;4.32;2.20;;;18.80;97.40;;;;;;5056959;28;20045;-82
2022/06/15 05:20:59;;;;;;;3.92;2.35;;;18.80;97.30;;;;;;5057473;28;20041;-82
2022/06/15 05:23:25;;;;;;;4.72;2.00;;;18.80;97.30;;;;;;5056598;28;20041;-82
2022/06/15 05:25:51;;;;;;;6.88;2.58;;;18.80;97.40;;;;;;5059642;28;20045;-82
2022/06/15 05:28:16;;;;;;;11.95;2.22;;;18.80;97.30;;;;;;5054886;28;20045;-82
2022/06/15 05:30:42;;;;;;;4.75;2.53;;;18.80;97.30;;;;;;5053330;28;20571;-82
2022/06/15 05:33:08;;;;;;;5.47;2.13;;;18.80;97.30;;;;;;5054882;28;20049;-82
2022/06/15 05:35:34;;;;;;;9.15;2.72;;;18.80;97.30;;;;;;5055366;28;20033;-83
2022/06/15 05:38:00;;;;;;;5.68;2.85;;;18.80;97.30;;;;;;5058498;28;20045;-82
2022/06/15 05:40:26;;;;;;;4.80;2.92;;;18.80;97.30;;;;;;5060452;28;20375;-82
2022/06/15 05:42:51;;;;;;;10.10;4.72;;;18.70;97.30;;;;;;5054173;28;20120;-82
2022/06/15 05:45:17;;;;;;;4.18;3.00;;;18.70;97.30;;;;;;5058694;28;20038;-82
2022/06/15 05:47:43;;;;;;;6.28;2.35;;;18.60;97.30;;;;;;5081240;27;20044;-82
2022/06/15 05:50:12;;;;;;;4.60;2.55;;;18.60;97.40;;;;;;5065997;28;20128;-82
2022/06/15 05:52:38;;;;;;;4.47;2.35;;;18.60;97.50;;;;;;5065516;28;20041;-82
2022/06/15 05:55:04;;;;;;;5.60;2.15;;;18.60;97.50;;;;;;5066243;28;20325;-82
2022/06/15 05:57:30;;;;;;;5.18;2.45;;;18.60;97.50;;;;;;5066500;28;20784;-81
2022/06/15 05:59:57;;;;;;;10.13;4.00;;;18.60;97.60;;;;;;5068071;28;20040;-82
2022/06/15 06:02:25;;;;;;;4.35;2.10;;;18.60;97.70;;;;;;5066122;28;20052;-81
2022/06/15 06:04:51;;;;;;;4.30;2.25;;;18.70;97.70;;;;;;5065561;28;20047;-82
2022/06/15 06:07:21;;;;;;;4.22;2.50;;;18.70;97.80;;;;;;5065269;28;20044;-83
2022/06/15 06:09:47;;;;;;;4.70;2.40;;;18.80;97.80;;;;;;5064089;28;20069;-82
2022/06/15 06:12:13;;;;;;;2.78;1.88;;;18.80;97.80;;;;;;5065586;28;20506;-82
2022/06/15 06:14:39;;;;;;;6.45;2.50;;;18.80;97.90;;;;;;5066131;28;20043;-82
2022/06/15 06:17:06;;;;;;;3.88;2.45;;;18.90;97.90;;;;;;5066242;28;20055;-82
2022/06/15 06:19:32;;;;;;;4.95;2.53;;;18.90;97.90;;;;;;5067358;28;20124;-82
2022/06/15 06:21:58;;;;;;;5.85;2.90;;;19.00;98.00;;;;;;5067779;28;20648;-82
2022/06/15 06:24:23;;;;;;;5.72;2.30;;;19.00;98.00;;;;;;5065803;28;20610;-82
2022/06/15 06:26:57;;;;;;;5.28;2.67;;;19.00;98.20;;;;;;5067626;28;20048;-82
2022/06/15 06:29:23;;;;;;;4.72;2.13;;;19.00;98.10;;;;;;5067701;28;20114;-82
2022/06/15 06:31:49;;;;;;;5.18;2.25;;;19.00;98.10;;;;;;5066927;28;20545;-82
2022/06/15 06:34:14;;;;;;;3.90;1.92;;;19.10;98.10;;;;;;5050274;28;20080;-82
2022/06/15 06:36:43;;;;;;;3.80;2.30;;;19.10;98.10;;;;;;5066075;28;20032;-82
2022/06/15 06:39:16;;;;;;;4.47;2.20;;;19.20;98.20;;;;;;5068493;28;20051;-82
2022/06/15 06:41:42;;;;;;;4.65;2.00;;;19.20;98.20;;;;;;5067164;28;20068;-82
2022/06/15 06:44:10;;;;;;;4.05;2.10;;;19.20;98.20;;;;;;5066921;28;20075;-82
2022/06/15 06:46:37;;;;;;;2.80;2.10;;;19.20;98.30;;;;;;5065307;28;20088;-82
2022/06/15 06:49:05;;;;;;;3.88;2.42;;;19.30;98.40;;;;;;5065634;28;20116;-82
2022/06/15 06:51:31;;;;;;;5.15;2.30;;;19.20;98.30;;;;;;5066026;28;20048;-82
2022/06/15 06:53:57;;;;;;;6.10;2.33;;;19.20;98.30;;;;;;5066265;28;20131;-82
2022/06/15 06:56:22;;;;;;;4.20;2.13;;;19.30;98.40;;;;;;5065030;28;20446;-82
2022/06/15 06:58:48;;;;;;;3.60;2.45;;;19.30;98.40;;;;;;5065845;28;20040;-82
2022/06/15 07:01:14;;;;;;;3.08;1.90;;;19.30;98.50;;;;;;5065914;28;20102;-82
2022/06/15 07:03:40;;;;;;;8.27;2.22;;;19.40;98.50;;;;;;5066519;28;20533;-82
2022/06/15 07:06:08;;;;;;;7.95;2.10;;;19.40;98.50;;;;;;5064897;28;20094;-82
2022/06/15 07:08:34;;;;;;;11.10;2.60;;;19.40;98.50;;;;;;5065476;28;21080;-82
2022/06/15 07:11:00;;;;;;;3.80;2.50;;;19.50;98.60;;;;;;5066966;28;20045;-82
2022/06/15 07:13:26;;;;;;;7.15;2.03;;;19.50;98.50;;;;;;5066044;28;20040;-82
2022/06/15 07:15:52;;;;;;;13.40;2.25;;;19.50;98.60;;;;;;5065821;28;20040;-82
2022/06/15 07:18:18;;;;;;;3.10;1.60;;;19.60;98.60;;;;;;5081387;28;20079;-82
2022/06/15 07:20:44;;;;;;;2.28;1.63;;;19.60;98.50;;;;;;5066907;28;21230;-82
2022/06/15 07:23:10;;;;;;;4.95;2.75;;;19.60;98.50;;;;;;5067185;28;20051;-82
2022/06/15 07:25:36;;;;;;;6.15;2.78;;;19.60;98.60;;;;;;5065756;28;20049;-82
2022/06/15 07:28:03;;;;;;;4.53;1.70;;;19.70;98.50;;;;;;5065295;28;20045;-82
2022/06/15 07:30:29;;;;;;;4.85;2.45;;;19.80;98.40;;;;;;5081570;28;20522;-82
2022/06/15 07:32:55;;;;;;;5.80;2.00;;;19.80;98.30;;;;;;5067215;28;20126;-82
2022/06/15 07:35:27;;;;;;;3.85;1.65;;;19.80;98.30;;;;;;5065701;28;20037;-82
2022/06/15 07:37:54;;;;;;;5.20;1.92;;;19.80;98.30;;;;;;5066867;28;20087;-82
2022/06/15 07:40:21;;;;;;;4.70;1.80;;;19.90;98.30;;;;;;5066757;28;20530;-82
2022/06/15 07:42:49;;;;;;;5.93;2.08;;;19.90;98.30;;;;;;5066993;28;20801;-82
2022/06/15 07:45:16;;;;;;;3.85;2.78;;;19.90;98.20;;;;;;5067078;28;20047;-82
2022/06/15 07:50:28;;;;;;;5.80;1.45;;;20.00;98.20;;;;;;5066985;28;20040;-82
2022/06/15 07:52:54;;;;;;;4.68;2.15;;;20.00;98.20;;;;;;5064511;28;20041;-82
2022/06/15 07:55:27;;;;;;;4.00;1.90;;;20.10;98.10;;;;;;5082333;28;20439;-82
2022/06/15 07:57:54;;;;;;;5.88;2.15;;;20.10;98.00;;;;;;5065938;28;20076;-82
2022/06/15 08:00:22;;;;;;;8.52;2.90;;;20.20;97.90;;;;;;5065706;28;20068;-82
2022/06/15 08:02:49;;;;;;;9.18;3.00;;;20.20;97.80;;;;;;5080719;28;20037;-82
2022/06/15 08:05:15;;;;;;;1.85;1.55;;;20.30;97.80;;;;;;5065619;28;20044;-82
2022/06/15 08:07:43;;;;;;;3.30;1.80;;;20.30;97.80;;;;;;5082332;28;20053;-81
2022/06/15 08:10:10;;;;;;;2.60;1.60;;;20.30;97.80;;;;;;5065194;28;20041;-82
2022/06/15 08:12:35;;;;;;;2.67;1.50;;;20.40;97.80;;;;;;5066549;28;20040;-83
2022/06/15 08:15:04;;;;;;;6.18;2.85;;;20.40;97.70;;;;;;5062938;28;20048;-82
2022/06/15 08:17:47;;;;;;;4.75;1.83;;;20.40;97.60;;;;;;5064470;28;20041;-82
2022/06/15 08:20:21;;;;;;;3.60;1.92;;;20.50;97.50;;;;;;5064694;28;20037;-82
2022/06/15 08:22:51;;;;;;;4.35;1.85;;;20.50;97.40;;;;;;5081810;28;20527;-82
2022/06/15 08:25:21;;;;;;;3.95;2.13;;;20.60;97.30;;;;;;5064444;28;20048;-82
2022/06/15 08:27:47;;;;;;;6.05;1.95;;;20.60;97.10;;;;;;5066484;28;20041;-82
2022/06/15 08:30:15;;;;;;;6.32;1.92;;;20.60;97.10;;;;;;5066250;28;20605;-82
2022/06/15 08:32:41;;;;;;;3.22;2.13;;;20.60;97.10;;;;;;5081162;28;20511;-82
2022/06/15 08:35:08;;;;;;;8.50;2.67;;;20.70;97.10;;;;;;5066749;28;20069;-82
2022/06/15 08:37:34;;;;;;;4.72;2.30;;;20.70;97.00;;;;;;5064725;28;20514;-82
2022/06/15 08:39:59;;;;;;;6.00;2.63;;;20.70;96.90;;;;;;5065827;28;20573;-82
2022/06/15 08:43:01;;;;;;;3.53;2.58;;;20.80;96.80;;;;;;5063918;28;20422;-82
2022/06/15 08:45:45;;;;;;;3.03;1.67;;;20.80;96.70;;;;;;5061946;28;20119;-82
2022/06/15 08:48:30;;;;;;;3.13;2.20;;;20.80;96.70;;;;;;5081067;28;20588;-82
2022/06/15 08:51:04;;;;;;;6.80;2.55;;;20.90;96.60;;;;;;5064363;28;20037;-82
2022/06/15 08:53:50;;;;;;;7.13;1.60;;;20.80;96.60;;;;;;5065002;28;20045;-82
2022/06/15 08:56:46;;;;;;;4.43;1.58;;;21.00;96.50;;;;;;5065676;28;20700;-82
2022/06/15 08:59:31;;;;;;;4.88;1.90;;;21.00;96.40;;;;;;5060901;28;20059;-82
2022/06/15 09:02:06;;;;;;;6.50;2.10;;;21.00;96.30;;;;;;5065523;28;20471;-82
2022/06/15 09:04:50;;;;;;;2.92;1.73;;;21.10;96.10;;;;;;5065937;28;20446;-82
2022/06/15 09:07:34;;;;;;;4.03;2.05;;;21.20;96.00;;;;;;5065105;28;20617;-82
2022/06/15 09:10:21;;;;;;;3.92;1.65;;;21.10;95.80;;;;;;5062837;28;20048;-82
2022/06/15 09:13:16;;;;;;;4.57;1.73;;;21.20;95.60;;;;;;5065288;28;20128;-82
2022/06/15 09:16:07;;;;;;;4.75;1.90;;;21.30;95.30;;;;;;5026986;28;20077;-82
2022/06/15 09:18:36;;;;;;;4.35;1.80;;;21.30;95.30;;;;;;5064190;28;20038;-82
2022/06/15 09:21:07;;;;;;;4.88;2.15;;;21.30;95.10;;;;;;5066763;28;20068;-82
2022/06/15 09:23:56;;;;;;;2.50;1.70;;;21.10;95.00;;;;;;5067694;28;20044;-82
2022/06/15 09:26:29;;;;;;;4.57;1.83;;;21.40;94.80;;;;;;5068153;28;20118;-82
2022/06/15 09:29:15;;;;;;;6.15;2.92;;;21.40;94.80;;;;;;5066605;28;20044;-82
2022/06/15 09:32:14;;;;;;;4.75;2.13;;;21.50;94.80;;;;;;5067820;28;20055;-82
2022/06/15 09:34:51;;;;;;;4.30;1.77;;;21.50;94.60;;;;;;5041681;28;20083;-83
2022/06/15 09:37:20;;;;;;;4.88;2.60;;;21.60;94.60;;;;;;5065734;28;20500;-82
2022/06/15 09:39:46;;;;;;;5.20;2.15;;;21.60;94.50;;;;;;5083443;28;20127;-82
2022/06/15 09:42:42;;;;;;;3.20;1.73;;;21.70;94.30;;;;;;5063621;28;20094;-83
2022/06/15 09:45:12;;;;;;;3.75;1.83;;;21.80;94.20;;;;;;5069033;28;20671;-82
2022/06/15 09:47:38;;;;;;;3.53;1.77;;;21.80;94.00;;;;;;5068122;28;20045;-82
2022/06/15 09:50:13;;;;;;;3.30;1.83;;;21.90;93.80;;;;;;5084021;27;20045;-82
2022/06/15 09:53:18;;;;;;;3.45;2.92;;;21.90;93.70;;;;;;5067378;28;20099;-82
2022/06/15 09:55:46;;;;;;;4.32;1.63;;;21.80;93.60;;;;;;5067515;28;20111;-82
2022/06/15 09:58:18;;;;;;;4.60;2.08;;;21.90;93.60;;;;;;5067849;28;20642;-83
2022/06/15 10:00:45;;;;;;;10.48;2.08;;;21.90;93.50;;;;;;5067593;28;20136;-82
2022/06/15 10:03:33;;;;;;;6.57;2.58;;;22.00;93.60;;;;;;5050281;28;20040;-82
2022/06/15 10:06:23;;;;;;;6.72;2.00;;;22.00;93.50;;;;;;5056789;28;20493;-82
2022/06/15 10:08:49;;;;;;;4.90;1.88;;;22.10;93.50;;;;;;5067166;28;20112;-82
2022/06/15 10:11:21;;;;;;;4.65;1.70;;;22.10;93.40;;;;;;5067179;28;20052;-82
2022/06/15 10:13:46;;;;;;;3.90;2.20;;;22.10;93.40;;;;;;5066421;28;20538;-82
2022/06/15 10:16:24;;;;;;;4.15;1.70;;;22.20;93.30;;;;;;5064475;28;20087;-82
2022/06/15 10:18:53;;;;;;;4.75;2.40;;;22.20;93.20;;;;;;5082651;28;20048;-82
2022/06/15 10:21:24;;;;;;;7.07;3.83;;;22.20;93.30;;;;;;5065297;28;20064;-82
2022/06/15 10:23:59;;;;;;;6.90;1.83;;;22.30;93.20;;;;;;5066097;28;20075;-82
2022/06/15 10:26:34;;;;;;;4.13;1.92;;;22.30;93.20;;;;;;5083542;28;20267;-82
2022/06/15 10:29:15;;;;;;;2.35;1.55;;;22.30;93.20;;;;;;5066323;28;20118;-83
2022/06/15 10:32:20;;;;;;;1.85;1.42;;;22.40;93.00;;;;;;5081743;28;20036;-82
2022/06/15 10:34:46;;;;;;;3.88;1.67;;;22.50;92.60;;;;;;5084256;27;20800;-82
2022/06/15 10:37:27;;;;;;;5.55;1.92;;;22.50;92.40;;;;;;5067619;28;20057;-82
2022/06/15 10:39:58;;;;;;;10.20;2.10;;;22.60;92.30;;;;;;5068153;28;20037;-82
2022/06/15 10:42:46;;;;;;;11.13;4.38;;;22.70;91.90;;;;;;5066831;28;20064;-82
2022/06/15 10:45:27;;;;;;;3.58;2.25;;;22.70;91.50;;;;;;5067730;28;20471;-82
2022/06/15 10:48:01;;;;;;;3.15;1.88;;;22.70;91.50;;;;;;5065800;28;20052;-82
2022/06/15 10:50:31;;;;;;;4.22;2.30;;;22.70;91.50;;;;;;5065578;28;20045;-82
2022/06/15 10:53:04;;;;;;;3.65;1.85;;;22.80;91.40;;;;;;5066522;28;20067;-82
2022/06/15 11:04:29;;;;;;;3.63;1.65;;;22.90;90.40;;;;;;5067839;28;20052;-82
2022/06/15 11:07:08;;;;;;;4.05;2.20;;;22.90;90.40;;;;;;5067410;28;20052;-82
2022/06/15 11:09:39;;;;;;;3.58;2.03;;;23.00;90.60;;;;;;5063988;28;20180;-82
2022/06/15 11:12:37;;;;;;;3.25;1.52;;;23.00;90.40;;;;;;5067588;28;20937;-82
2022/06/15 11:15:23;;;;;;;5.68;2.20;;;23.00;90.30;;;;;;5044399;28;20834;-82
2022/06/15 11:18:06;;;;;;;3.83;2.05;;;23.10;90.30;;;;;;5065823;28;20561;-82
2022/06/15 11:20:54;;;;;;;5.25;2.45;;;23.10;90.40;;;;;;5064643;28;20048;-82
2022/06/15 11:23:25;;;;;;;3.97;2.35;;;23.10;90.40;;;;;;5081703;28;20044;-82
2022/06/15 11:26:52;;;;;;;7.82;3.60;;;23.10;90.50;;;;;;5066633;28;20094;-82
2022/06/15 11:28:53;;;;;;;4.68;1.77;;;23.20;90.50;;;;;;5066180;28;20072;-82
2022/06/15 11:31:20;;;;;;;3.55;2.28;;;23.30;90.60;;;;;;5066378;28;20334;-82
2022/06/15 11:34:09;;;;;;;5.25;2.20;;;23.40;90.60;;;;;;5066317;28;20120;-82
2022/06/15 11:36:50;;;;;;;11.15;2.35;;;23.40;90.70;;;;;;5049057;28;20590;-82
2022/06/15 11:39:21;;;;;;;3.72;1.90;;;23.40;90.80;;;;;;5065891;28;20087;-82
2022/06/15 11:41:56;;;;;;;3.20;1.70;;;23.40;90.80;;;;;;5064867;28;20061;-82
2022/06/15 11:44:30;;;;;;;4.60;2.00;;;23.60;91.20;;;;;;5050817;28;20091;-82
2022/06/15 11:47:33;;;;;;;6.95;2.53;;;23.70;90.90;;;;;;5066561;28;20047;-82
2022/06/15 11:50:46;;;;;;;2.90;1.73;;;23.80;90.70;;;;;;5068109;28;20045;-82
2022/06/15 11:53:47;;;;;;;3.65;1.75;;;23.90;90.60;;;;;;5068326;28;20067;-82
2022/06/15 11:56:16;;;;;;;6.47;2.90;;;23.90;90.60;;;;;;5028936;28;20088;-82
2022/06/15 11:59:01;;;;;;;5.60;1.88;;;23.80;90.70;;;;;;5067251;28;20132;-83
2022/06/15 12:01:50;;;;;;;11.10;4.63;;;23.80;90.80;;;;;;5065416;28;20548;-82
2022/06/15 12:04:28;;;;;;;5.68;2.47;;;23.80;90.80;;;;;;5012933;28;20103;-82
2022/06/15 12:07:05;;;;;;;4.57;2.22;;;23.80;90.80;;;;;;5067804;28;20049;-82
2022/06/15 12:10:02;;;;;;;5.28;1.95;;;23.90;90.70;;;;;;5063303;28;20519;-82
2022/06/15 12:12:49;;;;;;;4.75;1.70;;;23.90;90.60;;;;;;5080487;28;20060;-82
2022/06/15 12:15:17;;;;;;;2.88;1.70;;;23.90;90.50;;;;;;5064930;28;20052;-82
2022/06/15 12:18:01;;;;;;;5.68;1.88;;;23.90;90.40;;;;;;5066426;28;20041;-82
2022/06/15 12:20:33;;;;;;;4.88;1.90;;;24.00;90.20;;;;;;5066079;28;20172;-82
2022/06/15 12:23:04;;;;;;;4.07;1.67;;;24.00;90.20;;;;;;5065537;28;20511;-82
2022/06/15 12:25:53;;;;;;;3.13;1.90;;;24.00;90.20;;;;;;5066659;28;20041;-82
2022/06/15 12:28:34;;;;;;;5.32;1.90;;;24.10;89.70;;;;;;5064864;28;20045;-82
2022/06/15 12:31:38;;;;;;;2.92;1.80;;;24.10;89.80;;;;;;5066080;28;20037;-82
2022/06/15 12:34:19;;;;;;;4.85;2.45;;;24.20;88.90;;;;;;5066089;28;20041;-82
2022/06/15 12:37:07;;;;;;;4.05;2.13;;;24.20;88.70;;;;;;5063989;28;20179;-82
2022/06/15 12:39:48;;;;;;;5.15;2.67;;;24.20;88.40;;;;;;5066252;28;20529;-82
2022/06/15 12:42:17;;;;;;;5.80;1.87;;;24.30;88.00;;;;;;5065950;28;20114;-82
2022/06/15 12:44:59;;;;;;;4.97;2.05;;;24.40;87.90;;;;;;5065035;28;20870;-82
2022/06/15 12:47:27;;;;;;;3.25;2.45;;;24.40;87.50;;;;;;5047612;28;20060;-82
2022/06/15 12:50:12;;;;;;;3.20;1.92;;;24.40;87.50;;;;;;5081879;28;20041;-82
2022/06/15 12:52:48;;;;;;;6.00;1.70;;;24.40;87.40;;;;;;5064413;28;20339;-82
2022/06/15 12:55:41;;;;;;;3.83;1.75;;;24.40;87.20;;;;;;5066765;28;20033;-81
2022/06/15 12:58:19;;;;;;;7.03;2.00;;;24.40;86.70;;;;;;5084630;28;20123;-81
2022/06/15 13:00:56;;;;;;;2.78;2.20;;;24.40;86.80;;;;;;5068253;28;20043;-81
2022/06/15 13:03:52;;;;;;;4.78;2.20;;;24.40;86.90;;;;;;5067777;28;20048;-81
2022/06/15 13:06:23;;;;;;;3.28;2.00;;;24.50;86.70;;;;;;5068029;28;20075;-81
2022/06/15 13:09:14;;;;;;;2.85;1.88;;;24.50;86.40;;;;;;5067965;28;20048;-81
2022/06/15 13:11:46;;;;;;;4.28;2.63;;;24.60;85.60;;;;;;5067434;28;20623;-81
2022/06/15 13:14:37;;;;;;;4.28;1.80;;;24.60;85.10;;;;;;5068440;28;20045;-81
2022/06/15 13:17:17;;;;;;;4.03;1.70;;;24.70;85.00;;;;;;5066195;28;20159;-81
2022/06/15 13:20:03;;;;;;;1.83;1.40;;;24.70;85.00;;;;;;5067502;28;20048;-81
2022/06/15 13:22:32;;;;;;;4.95;1.83;;;24.70;84.90;;;;;;5068258;28;20485;-81
2022/06/15 13:25:16;;;;;;;2.08;1.77;;;24.70;84.90;;;;;;5067173;28;20130;-81
2022/06/15 13:28:07;;;;;;;3.38;1.92;;;24.70;84.50;;;;;;5068320;28;20102;-81